Time;durP1;ratioP1;P1;durP2;ratioP2;P2;SDS_P1;SDS_P2;PMS_P1;PMS_P2;Temp;Humidity;BMP_temperature;BMP_pressure;BME280_temperature;BME280_humidity;BME280_pressure;Samples;Min_cycle;Max_cycle;Signal;HPM_P1;HPM_P2
2022/06/01 00:00:33;;;;;;;0.70;0.70;;;9.90;99.90;;;;;;5039123;28;20201;-81
2022/06/01 00:02:59;;;;;;;0.60;0.60;;;9.90;99.90;;;;;;5040173;28;20206;-81
2022/06/01 00:05:26;;;;;;;0.50;0.50;;;9.90;99.90;;;;;;5039440;28;20218;-80
2022/06/01 00:07:52;;;;;;;0.63;0.63;;;9.90;99.90;;;;;;5057806;28;20189;-81
2022/06/01 00:10:18;;;;;;;0.50;0.50;;;9.90;99.90;;;;;;5058040;28;20711;-82
2022/06/01 00:12:44;;;;;;;0.77;0.77;;;9.90;99.90;;;;;;5058005;28;20198;-81
2022/06/01 00:15:12;;;;;;;1.33;1.23;;;9.80;99.90;;;;;;5056873;28;20212;-80
2022/06/01 00:17:38;;;;;;;0.68;0.68;;;9.80;99.90;;;;;;5040058;28;20687;-81
2022/06/01 00:20:04;;;;;;;0.60;0.60;;;9.80;99.90;;;;;;5044830;28;20189;-81
2022/06/01 00:22:30;;;;;;;0.82;0.82;;;9.80;99.90;;;;;;5079809;28;20212;-81
2022/06/01 00:24:57;;;;;;;0.82;0.82;;;9.80;99.90;;;;;;5096328;28;20207;-80
2022/06/01 00:27:23;;;;;;;0.65;0.65;;;9.80;99.90;;;;;;5079421;28;20647;-81
2022/06/01 00:29:49;;;;;;;0.93;0.93;;;9.80;99.90;;;;;;5079951;28;20192;-80
2022/06/01 00:32:15;;;;;;;0.70;0.70;;;9.80;99.90;;;;;;5097670;28;20222;-81
2022/06/01 00:34:43;;;;;;;4.03;0.98;;;9.80;99.90;;;;;;5061077;28;20291;-80
2022/06/01 00:37:09;;;;;;;0.60;0.60;;;9.80;99.90;;;;;;5057678;28;20193;-81
2022/06/01 00:39:36;;;;;;;0.60;0.60;;;9.80;99.90;;;;;;5056202;28;20193;-81
2022/06/01 00:42:29;;;;;;;1.10;1.10;;;9.80;99.90;;;;;;5058310;28;20247;-82
2022/06/01 00:44:55;;;;;;;0.60;0.60;;;9.80;99.90;;;;;;5074667;28;20200;-81
2022/06/01 00:47:23;;;;;;;0.70;0.70;;;9.80;99.90;;;;;;5059519;28;20603;-82
2022/06/01 00:50:05;;;;;;;0.80;0.80;;;9.80;99.90;;;;;;5078092;28;20185;-81
2022/06/01 00:52:37;;;;;;;0.70;0.70;;;9.80;99.90;;;;;;5078302;28;20563;-81
2022/06/01 00:55:10;;;;;;;0.80;0.80;;;9.80;99.90;;;;;;5078751;28;20231;-82
2022/06/01 00:57:37;;;;;;;0.70;0.70;;;9.80;99.90;;;;;;5060699;28;20201;-80
2022/06/01 01:00:14;;;;;;;0.70;0.70;;;9.80;99.90;;;;;;5078757;28;20189;-84
2022/06/01 01:02:40;;;;;;;0.70;0.70;;;9.80;99.90;;;;;;5060035;28;20216;-82
2022/06/01 01:05:10;;;;;;;0.65;0.65;;;9.80;99.90;;;;;;5078303;28;20192;-82
2022/06/01 01:07:36;;;;;;;0.60;0.60;;;9.80;99.90;;;;;;5060060;28;20267;-81
2022/06/01 01:10:04;;;;;;;0.75;0.75;;;9.80;99.90;;;;;;5077591;28;20612;-82
2022/06/01 01:12:56;;;;;;;0.90;0.90;;;9.80;99.90;;;;;;5059694;28;20196;-82
2022/06/01 01:15:17;;;;;;;1.02;0.70;;;9.70;99.90;;;;;;5076824;28;20185;-81
2022/06/01 01:17:44;;;;;;;0.70;0.70;;;9.80;99.90;;;;;;5059815;28;20261;-82
2022/06/01 01:20:11;;;;;;;0.85;0.85;;;9.80;99.90;;;;;;5060150;28;20625;-81
2022/06/01 01:22:52;;;;;;;0.70;0.70;;;9.70;99.90;;;;;;5059769;28;20557;-82
2022/06/01 01:25:34;;;;;;;0.65;0.65;;;9.70;99.90;;;;;;5060012;28;20197;-82
2022/06/01 01:28:02;;;;;;;0.60;0.60;;;9.70;99.90;;;;;;5059980;28;20675;-82
2022/06/01 01:30:39;;;;;;;0.60;0.60;;;9.60;99.90;;;;;;5060216;28;20347;-82
2022/06/01 01:33:13;;;;;;;0.50;0.50;;;9.60;99.90;;;;;;5056056;28;20189;-82
2022/06/01 01:35:41;;;;;;;0.75;0.75;;;9.60;99.90;;;;;;5056893;28;20197;-82
2022/06/01 01:38:40;;;;;;;0.50;0.50;;;9.50;99.90;;;;;;5056895;28;20204;-81
2022/06/01 01:41:14;;;;;;;0.70;0.70;;;9.50;99.90;;;;;;5076383;28;20711;-81
2022/06/01 01:43:47;;;;;;;0.73;0.73;;;9.50;99.90;;;;;;5079869;28;20216;-81
2022/06/01 01:46:13;;;;;;;0.75;0.75;;;9.40;99.90;;;;;;5080172;28;20196;-81
2022/06/01 01:48:39;;;;;;;0.60;0.60;;;9.30;99.90;;;;;;5098218;28;20578;-79
2022/06/01 01:51:05;;;;;;;0.80;0.70;;;9.30;99.90;;;;;;5080074;28;20188;-82
2022/06/01 01:53:32;;;;;;;1.08;1.05;;;9.30;99.90;;;;;;5080181;28;20222;-80
2022/06/01 01:56:21;;;;;;;0.60;0.60;;;9.30;99.90;;;;;;5098653;28;20582;-81
2022/06/01 01:59:08;;;;;;;0.70;0.70;;;9.20;99.90;;;;;;5052555;28;20219;-80
2022/06/01 02:01:46;;;;;;;0.60;0.60;;;9.20;99.90;;;;;;5065693;28;20200;-81
2022/06/01 02:07:45;;;;;;;0.60;0.60;;;9.20;99.90;;;;;;5077094;28;20219;-82
2022/06/01 02:12:56;;;;;;;0.70;0.68;;;9.20;99.90;;;;;;5077800;28;20243;-81
2022/06/01 02:15:30;;;;;;;0.73;0.73;;;9.10;99.90;;;;;;5077350;28;20253;-82
2022/06/01 02:18:05;;;;;;;0.80;0.80;;;9.20;99.90;;;;;;5076951;28;20271;-81
2022/06/01 02:20:44;;;;;;;0.77;0.77;;;9.10;99.90;;;;;;5076089;28;20270;-82
2022/06/01 02:23:13;;;;;;;0.60;0.60;;;9.10;99.90;;;;;;5076357;28;20722;-80
2022/06/01 02:25:42;;;;;;;0.63;0.63;;;9.20;99.90;;;;;;5076006;28;20705;-83
2022/06/01 02:28:09;;;;;;;0.60;0.60;;;9.10;99.90;;;;;;5079204;28;20200;-81
2022/06/01 02:30:43;;;;;;;0.70;0.70;;;9.10;99.90;;;;;;5080458;28;20254;-81
2022/06/01 02:33:12;;;;;;;0.50;0.50;;;9.20;99.90;;;;;;5080408;28;20255;-81
2022/06/01 02:35:43;;;;;;;0.93;0.88;;;9.20;99.90;;;;;;5079939;28;20201;-81
2022/06/01 02:38:14;;;;;;;0.60;0.60;;;9.20;99.90;;;;;;5081463;28;20232;-81
2022/06/01 02:40:39;;;;;;;0.60;0.60;;;9.20;99.90;;;;;;5063761;28;20745;-81
2022/06/01 02:43:06;;;;;;;0.70;0.70;;;9.20;99.90;;;;;;5063540;28;20212;-81
2022/06/01 02:45:31;;;;;;;0.60;0.60;;;9.20;99.90;;;;;;5063388;28;20287;-82
2022/06/01 02:48:01;;;;;;;0.60;0.60;;;9.20;99.90;;;;;;5067540;28;20204;-81
2022/06/01 02:50:30;;;;;;;0.90;0.90;;;9.20;99.90;;;;;;5082771;28;20671;-81
2022/06/01 02:52:57;;;;;;;1.00;0.93;;;9.20;99.90;;;;;;5101112;28;20200;-81
2022/06/01 02:55:25;;;;;;;0.93;0.93;;;9.20;99.90;;;;;;5078631;28;20205;-81
2022/06/01 02:57:52;;;;;;;0.70;0.70;;;9.20;99.90;;;;;;5063098;28;20200;-82
2022/06/01 03:00:26;;;;;;;0.50;0.50;;;9.20;99.90;;;;;;5062419;28;20223;-84
2022/06/01 03:02:54;;;;;;;1.75;1.25;;;9.30;99.90;;;;;;5079508;28;20196;-82
2022/06/01 03:05:24;;;;;;;0.60;0.60;;;9.40;99.90;;;;;;5062483;28;20200;-82
2022/06/01 03:07:50;;;;;;;0.95;0.90;;;9.40;99.90;;;;;;5080652;28;20211;-81
2022/06/01 03:10:17;;;;;;;0.60;0.60;;;9.40;99.90;;;;;;5062766;28;20258;-81
2022/06/01 03:12:43;;;;;;;0.70;0.70;;;9.40;99.90;;;;;;5062803;28;20205;-81
2022/06/01 03:15:12;;;;;;;1.55;1.15;;;9.50;99.90;;;;;;5079103;28;20288;-80
2022/06/01 03:17:38;;;;;;;0.60;0.60;;;9.50;99.90;;;;;;5062635;28;20276;-79
2022/06/01 03:20:08;;;;;;;0.60;0.60;;;9.60;99.90;;;;;;5081765;28;20220;-81
2022/06/01 03:22:38;;;;;;;0.70;0.70;;;9.60;99.90;;;;;;5082522;28;20585;-81
2022/06/01 03:25:07;;;;;;;0.90;0.90;;;9.60;99.90;;;;;;5083212;28;20647;-79
2022/06/01 03:27:33;;;;;;;1.95;1.08;;;9.60;99.90;;;;;;5082886;28;20197;-78
2022/06/01 03:29:59;;;;;;;0.60;0.60;;;9.70;99.90;;;;;;5082471;28;20207;-80
2022/06/01 03:32:24;;;;;;;1.27;0.98;;;9.80;99.90;;;;;;5082238;28;20227;-79
2022/06/01 03:34:50;;;;;;;0.80;0.80;;;9.80;99.90;;;;;;5099779;28;20200;-79
2022/06/01 03:37:16;;;;;;;0.60;0.60;;;9.80;99.90;;;;;;5081776;28;20207;-79
2022/06/01 03:39:41;;;;;;;2.55;1.45;;;9.90;99.90;;;;;;5098834;28;20196;-80
2022/06/01 03:42:08;;;;;;;0.88;0.88;;;9.90;99.90;;;;;;5081528;28;20209;-81
2022/06/01 03:47:18;;;;;;;0.77;0.77;;;10.00;99.90;;;;;;5099645;28;20199;-80
2022/06/01 03:49:44;;;;;;;1.15;0.77;;;10.10;99.90;;;;;;5082043;28;20196;-81
2022/06/01 03:52:10;;;;;;;1.20;1.13;;;10.10;99.90;;;;;;5099581;28;20188;-79
2022/06/01 03:54:37;;;;;;;1.17;1.08;;;10.20;99.90;;;;;;5099466;28;20212;-81
2022/06/01 03:57:04;;;;;;;0.50;0.50;;;10.20;99.90;;;;;;5084073;28;20224;-81
2022/06/01 03:59:30;;;;;;;0.88;0.88;;;10.30;99.90;;;;;;5061651;28;20600;-79
2022/06/01 04:02:00;;;;;;;0.60;0.60;;;10.40;99.90;;;;;;5078603;28;20196;-79
2022/06/01 04:04:26;;;;;;;0.93;0.93;;;10.40;99.90;;;;;;5077955;28;20234;-81
2022/06/01 04:06:52;;;;;;;0.60;0.60;;;10.40;99.90;;;;;;5078495;28;20220;-80
2022/06/01 04:09:17;;;;;;;1.00;0.98;;;10.40;99.90;;;;;;5078336;28;20197;-80
2022/06/01 04:11:43;;;;;;;0.70;0.70;;;10.40;99.90;;;;;;5079078;28;20243;-81
2022/06/01 04:14:09;;;;;;;0.80;0.80;;;10.50;99.90;;;;;;5077685;28;20670;-78
2022/06/01 04:16:35;;;;;;;0.60;0.60;;;10.50;99.90;;;;;;5078128;28;20208;-79
2022/06/01 04:19:00;;;;;;;0.50;0.50;;;10.50;99.90;;;;;;5077722;28;20197;-79
2022/06/01 04:21:30;;;;;;;0.50;0.50;;;10.50;99.90;;;;;;5092466;28;20227;-81
2022/06/01 04:24:00;;;;;;;0.75;0.75;;;10.50;99.90;;;;;;5081250;28;20299;-81
2022/06/01 04:26:26;;;;;;;0.70;0.70;;;10.60;99.90;;;;;;5099406;28;20195;-80
2022/06/01 04:28:52;;;;;;;0.70;0.70;;;10.60;99.90;;;;;;5080287;28;20726;-79
2022/06/01 04:31:18;;;;;;;1.25;1.15;;;10.70;99.90;;;;;;5060845;28;20224;-80
2022/06/01 04:33:44;;;;;;;0.73;0.65;;;10.70;99.90;;;;;;5056947;28;20617;-79
2022/06/01 04:36:10;;;;;;;0.60;0.60;;;10.70;99.90;;;;;;5041331;28;20288;-79
2022/06/01 04:38:35;;;;;;;0.95;0.90;;;10.70;99.90;;;;;;5040504;28;20197;-79
2022/06/01 04:41:01;;;;;;;0.55;0.55;;;10.80;99.90;;;;;;5040555;28;20189;-80
2022/06/01 04:43:27;;;;;;;0.68;0.68;;;10.90;99.90;;;;;;5057870;28;20205;-80
2022/06/01 04:45:54;;;;;;;0.60;0.60;;;11.00;99.90;;;;;;5040710;28;20236;-79
2022/06/01 04:48:20;;;;;;;0.88;0.88;;;11.00;99.90;;;;;;5060272;28;20219;-81
2022/06/01 04:50:46;;;;;;;0.60;0.60;;;11.10;99.90;;;;;;5060608;28;20257;-80
2022/06/01 04:53:14;;;;;;;1.50;1.38;;;11.10;99.90;;;;;;5060214;28;20201;-80
2022/06/01 04:55:41;;;;;;;0.50;0.50;;;11.10;99.90;;;;;;5062653;28;20692;-80
2022/06/01 04:58:07;;;;;;;0.70;0.70;;;11.10;99.90;;;;;;5080279;28;20341;-80
2022/06/01 05:00:33;;;;;;;0.88;0.82;;;11.10;99.90;;;;;;5079862;28;20242;-81
2022/06/01 05:02:59;;;;;;;0.50;0.50;;;11.10;99.90;;;;;;5080312;28;20666;-81
2022/06/01 05:05:25;;;;;;;0.60;0.60;;;11.10;99.90;;;;;;5079894;28;20647;-80
2022/06/01 05:07:51;;;;;;;0.60;0.60;;;11.10;99.90;;;;;;5098323;28;20218;-82
2022/06/01 05:10:17;;;;;;;0.80;0.80;;;11.20;99.90;;;;;;5079704;28;20192;-82
2022/06/01 05:12:43;;;;;;;0.50;0.50;;;11.20;99.90;;;;;;5098136;28;20195;-82
2022/06/01 05:15:09;;;;;;;1.52;0.80;;;11.30;99.90;;;;;;5098123;28;20654;-81
2022/06/01 05:17:35;;;;;;;0.50;0.50;;;11.40;99.90;;;;;;5079262;28;20241;-82
2022/06/01 05:20:02;;;;;;;0.57;0.57;;;11.40;99.90;;;;;;5078961;28;20278;-80
2022/06/01 05:22:28;;;;;;;0.60;0.60;;;11.40;99.90;;;;;;5097360;28;20588;-80
2022/06/01 05:24:54;;;;;;;0.60;0.60;;;11.50;99.90;;;;;;5097376;28;20196;-80
2022/06/01 05:27:20;;;;;;;0.95;0.80;;;11.50;99.90;;;;;;5059983;28;20208;-81
2022/06/01 05:29:46;;;;;;;0.75;0.70;;;11.60;99.90;;;;;;5059600;28;20663;-80
2022/06/01 05:32:12;;;;;;;0.57;0.57;;;11.70;99.90;;;;;;5059251;28;20255;-80
2022/06/01 05:34:38;;;;;;;0.65;0.65;;;11.80;99.90;;;;;;5058730;28;20201;-80
2022/06/01 05:37:04;;;;;;;0.60;0.60;;;11.80;99.90;;;;;;5039127;28;20194;-81
2022/06/01 05:39:30;;;;;;;1.10;0.60;;;11.90;99.90;;;;;;5039402;28;20320;-79
2022/06/01 05:41:55;;;;;;;0.50;0.50;;;12.00;99.90;;;;;;5039640;28;20695;-81
2022/06/01 05:44:21;;;;;;;5.68;2.05;;;12.10;99.90;;;;;;5044133;28;20296;-81
2022/06/01 05:46:56;;;;;;;0.68;0.68;;;12.10;99.90;;;;;;5076705;28;20251;-81
2022/06/01 05:49:22;;;;;;;0.82;0.77;;;12.00;99.90;;;;;;5059435;28;20195;-81
2022/06/01 05:51:48;;;;;;;0.55;0.55;;;11.90;99.90;;;;;;5058825;28;20559;-82
2022/06/01 05:54:14;;;;;;;0.80;0.80;;;11.90;99.90;;;;;;5059291;28;20207;-82
2022/06/01 05:56:40;;;;;;;0.85;0.85;;;12.00;99.90;;;;;;5059241;28;20546;-81
2022/06/01 05:59:06;;;;;;;0.80;0.80;;;12.20;99.90;;;;;;5059094;28;20205;-82
2022/06/01 06:01:31;;;;;;;0.60;0.60;;;12.30;99.90;;;;;;5060561;28;20287;-81
2022/06/01 06:03:57;;;;;;;0.60;0.60;;;12.60;99.90;;;;;;5066138;28;20692;-81
2022/06/01 06:06:23;;;;;;;1.20;1.02;;;12.80;99.90;;;;;;5065741;28;20193;-81
2022/06/01 06:09:02;;;;;;;0.50;0.50;;;13.00;99.90;;;;;;5065607;28;20214;-80
2022/06/01 06:11:31;;;;;;;0.50;0.50;;;13.00;99.90;;;;;;5065868;28;20538;-81
2022/06/01 06:14:00;;;;;;;1.10;0.95;;;12.90;99.90;;;;;;5065850;28;20254;-81
2022/06/01 06:16:32;;;;;;;0.60;0.60;;;12.70;99.90;;;;;;5065312;28;20200;-81
2022/06/01 06:18:58;;;;;;;0.60;0.60;;;12.60;99.90;;;;;;5065737;28;20201;-81
2022/06/01 06:21:26;;;;;;;0.70;0.70;;;12.60;99.90;;;;;;5064984;28;20231;-80
2022/06/01 06:23:53;;;;;;;0.90;0.90;;;12.60;99.90;;;;;;5065551;28;20215;-83
2022/06/01 06:26:20;;;;;;;0.95;0.95;;;12.60;99.90;;;;;;5065168;28;20232;-81
2022/06/01 06:28:47;;;;;;;0.50;0.50;;;12.70;99.90;;;;;;5064943;28;20211;-81
2022/06/01 06:31:12;;;;;;;1.60;1.05;;;12.80;99.90;;;;;;5065818;28;20604;-82
2022/06/01 06:33:40;;;;;;;0.80;0.80;;;12.90;99.90;;;;;;5064956;28;20208;-82
2022/06/01 06:36:07;;;;;;;0.50;0.50;;;13.10;99.90;;;;;;5065807;28;20257;-82
2022/06/01 06:38:35;;;;;;;0.40;0.40;;;13.20;99.90;;;;;;5066032;28;20203;-82
2022/06/01 06:41:02;;;;;;;0.50;0.50;;;13.40;99.90;;;;;;5074826;28;20192;-85
2022/06/01 06:43:29;;;;;;;0.80;0.80;;;13.30;99.90;;;;;;5086038;28;20214;-85
2022/06/01 06:46:10;;;;;;;0.45;0.45;;;13.30;99.90;;;;;;5071315;28;20197;-83
2022/06/01 06:48:37;;;;;;;0.63;0.63;;;13.00;99.90;;;;;;5066501;28;20200;-84
2022/06/01 06:51:03;;;;;;;0.40;0.40;;;12.90;99.90;;;;;;5084603;28;20185;-83
2022/06/01 06:53:29;;;;;;;1.15;1.05;;;12.90;99.90;;;;;;5066335;28;20671;-83
2022/06/01 06:55:56;;;;;;;0.68;0.65;;;12.70;99.90;;;;;;5066302;28;20222;-83
2022/06/01 06:58:22;;;;;;;0.70;0.70;;;12.60;99.90;;;;;;5065844;28;20201;-82
2022/06/01 07:00:48;;;;;;;0.60;0.60;;;12.50;99.90;;;;;;5066537;28;20192;-82
2022/06/01 07:03:15;;;;;;;1.33;1.23;;;12.40;99.90;;;;;;5066086;28;20698;-81
2022/06/01 07:08:26;;;;;;;0.50;0.50;;;12.20;99.90;;;;;;5084889;28;20227;-83
2022/06/01 07:10:53;;;;;;;0.50;0.50;;;12.10;99.90;;;;;;5084880;28;20199;-82
2022/06/01 07:13:19;;;;;;;1.95;1.35;;;12.10;99.90;;;;;;5067496;28;20197;-83
2022/06/01 07:15:45;;;;;;;1.95;0.95;;;12.20;99.90;;;;;;5064961;28;20493;-84
2022/06/01 07:18:10;;;;;;;1.95;0.75;;;12.20;99.90;;;;;;5064440;28;20343;-83
2022/06/01 07:20:36;;;;;;;7.38;1.10;;;12.20;99.90;;;;;;5089837;28;20223;-86
2022/06/01 07:23:06;;;;;;;0.85;0.85;;;12.30;99.90;;;;;;5086270;28;20244;-86
2022/06/01 07:25:32;;;;;;;0.75;0.75;;;12.20;99.90;;;;;;5104569;28;20202;-84
2022/06/01 07:27:58;;;;;;;0.68;0.68;;;12.20;99.90;;;;;;5103772;28;20189;-84
2022/06/01 07:30:25;;;;;;;0.60;0.60;;;12.30;99.90;;;;;;5084810;28;20223;-85
2022/06/01 07:32:51;;;;;;;0.70;0.70;;;12.30;99.90;;;;;;5080710;28;20279;-83
2022/06/01 07:35:18;;;;;;;0.55;0.55;;;12.30;99.90;;;;;;5062438;28;20235;-82
2022/06/01 07:43:17;;;;;;;0.77;0.77;;;12.70;99.90;;;;;;5079512;28;20269;-83
2022/06/01 07:45:48;;;;;;;0.50;0.50;;;13.00;99.90;;;;;;5075012;28;20188;-83
2022/06/01 07:48:14;;;;;;;0.52;0.52;;;13.10;99.90;;;;;;5082189;28;20573;-82
2022/06/01 07:50:40;;;;;;;0.70;0.70;;;13.30;99.90;;;;;;5099885;28;20188;-82
2022/06/01 07:53:08;;;;;;;0.40;0.40;;;13.50;99.90;;;;;;5081732;28;20199;-82
2022/06/01 07:55:36;;;;;;;0.70;0.70;;;13.80;99.90;;;;;;5081766;28;20196;-82
2022/06/01 07:58:03;;;;;;;0.60;0.60;;;14.00;99.90;;;;;;5081565;28;20222;-83
2022/06/01 08:00:30;;;;;;;0.47;0.47;;;14.20;99.90;;;;;;5082032;28;20200;-83
2022/06/01 08:02:56;;;;;;;1.15;1.05;;;13.90;99.90;;;;;;5099971;28;20214;-82
2022/06/01 08:05:23;;;;;;;0.50;0.50;;;13.90;99.90;;;;;;5081592;28;20196;-84
2022/06/01 08:07:49;;;;;;;0.50;0.50;;;14.00;99.90;;;;;;5081645;28;20220;-83
2022/06/01 08:10:18;;;;;;;0.40;0.40;;;14.10;99.90;;;;;;5081289;28;20198;-82
2022/06/01 08:15:29;;;;;;;1.85;0.77;;;14.80;99.90;;;;;;5099467;28;20211;-83
2022/06/01 08:17:57;;;;;;;0.43;0.43;;;15.20;99.90;;;;;;5081663;28;20651;-84
2022/06/01 08:20:24;;;;;;;0.57;0.57;;;15.70;99.90;;;;;;5080818;28;20316;-83
2022/06/01 08:22:50;;;;;;;0.63;0.63;;;15.90;99.90;;;;;;5081220;28;20211;-84
2022/06/01 08:25:17;;;;;;;0.47;0.47;;;16.00;99.90;;;;;;5080518;28;20192;-83
2022/06/01 08:27:44;;;;;;;0.40;0.40;;;16.60;99.90;;;;;;5080319;28;20200;-82
2022/06/01 08:30:11;;;;;;;0.55;0.55;;;16.60;99.90;;;;;;5080803;28;20336;-83
2022/06/01 08:32:37;;;;;;;0.40;0.40;;;16.60;99.90;;;;;;5079499;28;20227;-83
2022/06/01 08:35:05;;;;;;;0.50;0.50;;;16.50;99.90;;;;;;5040533;28;20201;-83
2022/06/01 08:37:31;;;;;;;0.43;0.43;;;16.50;99.90;;;;;;5049251;28;20559;-83
2022/06/01 08:39:56;;;;;;;0.63;0.63;;;16.60;99.90;;;;;;5061069;28;20191;-83
2022/06/01 08:42:24;;;;;;;0.40;0.40;;;16.80;99.90;;;;;;5076443;28;20192;-84
2022/06/01 08:44:52;;;;;;;0.55;0.55;;;16.70;99.90;;;;;;5081420;28;20223;-83
2022/06/01 08:47:31;;;;;;;1.10;0.52;;;16.70;99.90;;;;;;5080366;28;20200;-83
2022/06/01 08:50:01;;;;;;;0.47;0.47;;;16.90;99.90;;;;;;5080750;28;20219;-83
2022/06/01 08:52:30;;;;;;;0.30;0.30;;;16.80;99.90;;;;;;5080628;28;20305;-84
2022/06/01 08:54:57;;;;;;;0.50;0.50;;;17.00;99.90;;;;;;5080970;28;20251;-83
2022/06/01 08:57:29;;;;;;;0.60;0.60;;;17.00;99.90;;;;;;5099361;28;20192;-84
2022/06/01 09:00:03;;;;;;;0.70;0.70;;;17.40;99.90;;;;;;5081964;28;20196;-83
2022/06/01 09:02:50;;;;;;;0.43;0.43;;;17.30;99.90;;;;;;5085200;28;20203;-83
2022/06/01 09:06:00;;;;;;;0.47;0.40;;;18.00;99.90;;;;;;5086389;28;20216;-82
2022/06/01 09:08:37;;;;;;;0.30;0.30;;;18.60;99.90;;;;;;5021583;28;20209;-85
2022/06/01 09:11:07;;;;;;;0.30;0.30;;;18.90;99.90;;;;;;5006412;28;20202;-84
2022/06/01 09:13:47;;;;;;;0.30;0.30;;;19.00;99.90;;;;;;5008105;28;20262;-86
2022/06/01 09:16:20;;;;;;;0.55;0.55;;;17.90;99.90;;;;;;5005572;28;20207;-86
2022/06/01 09:18:53;;;;;;;1.08;0.50;;;17.90;99.90;;;;;;4999121;28;20205;-86
2022/06/01 09:24:20;;;;;;;0.50;0.50;;;19.00;99.90;;;;;;5014668;28;20663;-87
2022/06/01 09:27:07;;;;;;;0.75;0.55;;;19.30;99.90;;;;;;5015067;28;20618;-86
2022/06/01 09:29:42;;;;;;;0.38;0.38;;;19.70;99.90;;;;;;4992924;28;20211;-87
2022/06/01 09:32:24;;;;;;;0.30;0.30;;;20.30;99.90;;;;;;4996784;28;20774;-86
2022/06/01 09:34:50;;;;;;;0.30;0.30;;;19.40;99.90;;;;;;4996968;28;20219;-87
2022/06/01 09:37:26;;;;;;;0.40;0.40;;;19.20;99.90;;;;;;4979565;28;20254;-87
2022/06/01 09:39:57;;;;;;;0.43;0.43;;;18.80;99.90;;;;;;4980074;28;20246;-85
2022/06/01 09:42:25;;;;;;;2.75;0.68;;;18.70;99.90;;;;;;5023713;28;20212;-87
2022/06/01 09:44:53;;;;;;;0.40;0.40;;;19.30;99.90;;;;;;5075438;28;20189;-85
2022/06/01 09:47:42;;;;;;;0.75;0.75;;;19.00;99.90;;;;;;5075751;28;20279;-85
2022/06/01 09:50:30;;;;;;;0.25;0.25;;;19.10;99.90;;;;;;5075755;28;20200;-86
2022/06/01 09:53:10;;;;;;;0.88;0.70;;;19.40;99.90;;;;;;5075465;28;20605;-86
2022/06/01 09:55:48;;;;;;;1.20;0.93;;;19.50;99.90;;;;;;5074969;28;20234;-86
2022/06/01 10:06:05;;;;;;;0.85;0.40;;;19.20;99.90;;;;;;5059600;28;20699;-87
2022/06/01 10:06:57;;;;;;;0.57;0.43;;;17.90;99.90;;;;;;5074164;28;20203;-83
2022/06/01 10:09:32;;;;;;;0.40;0.40;;;17.50;99.90;;;;;;5055256;28;20203;-84
2022/06/01 10:12:14;;;;;;;0.50;0.50;;;17.60;99.90;;;;;;5057891;28;20188;-84
2022/06/01 10:14:48;;;;;;;0.30;0.30;;;17.40;99.90;;;;;;5058113;28;20207;-84
2022/06/01 10:17:35;;;;;;;0.45;0.45;;;17.30;99.90;;;;;;5058456;28;20605;-83
2022/06/01 10:20:23;;;;;;;0.35;0.35;;;17.20;99.90;;;;;;5076989;28;20199;-84
2022/06/01 10:23:11;;;;;;;1.35;1.13;;;17.30;99.90;;;;;;5059698;28;20272;-84
2022/06/01 10:25:53;;;;;;;0.55;0.52;;;17.70;99.90;;;;;;5058239;28;20196;-84
2022/06/01 10:28:39;;;;;;;0.43;0.43;;;18.50;99.90;;;;;;5076962;28;20192;-85
2022/06/01 10:31:18;;;;;;;0.43;0.43;;;19.10;99.90;;;;;;5041106;28;20559;-84
2022/06/01 10:33:49;;;;;;;0.30;0.30;;;18.60;99.90;;;;;;5038712;28;20225;-84
2022/06/01 10:36:40;;;;;;;1.67;0.65;;;19.20;99.90;;;;;;5039361;28;20227;-84
2022/06/01 10:39:31;;;;;;;0.55;0.55;;;20.30;99.90;;;;;;5038870;28;20201;-83
2022/06/01 10:43:16;;;;;;;0.30;0.30;;;21.30;99.90;;;;;;5039302;28;20205;-84
2022/06/01 10:45:14;;;;;;;1.75;0.65;;;21.60;99.90;;;;;;5057131;28;20703;-83
2022/06/01 10:47:49;;;;;;;0.32;0.32;;;21.80;99.90;;;;;;5039283;28;20197;-84
2022/06/01 10:50:21;;;;;;;0.40;0.40;;;21.70;99.90;;;;;;5042442;28;20611;-84
2022/06/01 10:52:55;;;;;;;0.20;0.20;;;21.50;99.90;;;;;;5042970;28;20672;-84
2022/06/01 10:55:36;;;;;;;0.40;0.40;;;22.30;99.90;;;;;;5060301;28;20261;-83
2022/06/01 10:58:03;;;;;;;0.40;0.40;;;21.90;99.90;;;;;;5060483;28;20192;-83
2022/06/01 11:00:50;;;;;;;0.30;0.30;;;22.20;99.90;;;;;;5042707;28;20202;-80
2022/06/01 11:03:52;;;;;;;0.80;0.40;;;22.00;99.90;;;;;;5048229;28;20623;-80
2022/06/01 11:06:26;;;;;;;0.20;0.20;;;22.20;99.90;;;;;;5080344;28;20188;-82
2022/06/01 11:09:00;;;;;;;0.82;0.55;;;22.60;99.90;;;;;;5079774;28;20201;-81
2022/06/01 11:11:54;;;;;;;0.20;0.20;;;22.20;99.90;;;;;;5062803;28;20249;-80
2022/06/01 11:14:25;;;;;;;0.30;0.30;;;21.40;99.90;;;;;;5062286;28;20572;-81
2022/06/01 11:17:17;;;;;;;0.38;0.38;;;21.00;99.90;;;;;;5062215;28;20200;-80
2022/06/01 11:19:49;;;;;;;0.50;0.50;;;21.00;99.90;;;;;;5061339;28;20668;-80
2022/06/01 11:22:33;;;;;;;0.20;0.20;;;20.80;99.90;;;;;;5081520;28;20223;-80
2022/06/01 11:25:19;;;;;;;0.20;0.20;;;21.30;99.90;;;;;;5082381;28;20345;-80
2022/06/01 11:28:19;;;;;;;0.20;0.20;;;21.40;99.90;;;;;;5042056;28;20239;-80
2022/06/01 11:31:00;;;;;;;0.30;0.30;;;22.30;99.90;;;;;;5069719;28;20544;-81
2022/06/01 11:33:44;;;;;;;0.25;0.25;;;21.70;99.90;;;;;;5091703;28;20184;-81
2022/06/01 11:36:19;;;;;;;0.20;0.20;;;21.00;99.90;;;;;;5061907;28;20193;-81
2022/06/01 11:38:51;;;;;;;0.17;0.17;;;20.80;99.90;;;;;;5079821;28;20195;-81
2022/06/01 11:41:39;;;;;;;0.43;0.30;;;21.40;99.90;;;;;;5078644;28;20500;-83
2022/06/01 11:44:14;;;;;;;0.93;0.40;;;21.50;99.90;;;;;;5061931;28;20213;-79
2022/06/01 11:46:42;;;;;;;0.20;0.20;;;21.00;99.90;;;;;;5079298;28;20212;-80
2022/06/01 11:49:30;;;;;;;0.28;0.22;;;21.20;99.90;;;;;;5079387;28;20197;-79
2022/06/01 11:52:10;;;;;;;0.30;0.30;;;21.80;99.90;;;;;;5061960;28;20655;-79
2022/06/01 11:54:37;;;;;;;0.30;0.30;;;22.30;99.90;;;;;;5079415;28;20235;-80
2022/06/01 11:57:21;;;;;;;0.40;0.40;;;22.60;99.90;;;;;;5061843;28;20605;-79
2022/06/01 12:00:07;;;;;;;0.20;0.20;;;22.60;99.90;;;;;;5060311;28;20197;-80
2022/06/01 12:02:40;;;;;;;0.45;0.38;;;21.90;99.90;;;;;;5061269;28;20196;-80
2022/06/01 12:05:29;;;;;;;0.40;0.40;;;22.00;99.90;;;;;;5079754;28;20185;-81
2022/06/01 12:08:10;;;;;;;0.28;0.28;;;22.00;99.90;;;;;;5078559;28;20209;-79
2022/06/01 12:10:58;;;;;;;0.30;0.30;;;21.90;99.90;;;;;;5061503;28;20256;-79
2022/06/01 12:13:49;;;;;;;0.30;0.30;;;21.90;99.90;;;;;;5079518;28;20193;-80
2022/06/01 12:16:21;;;;;;;0.20;0.20;;;22.60;99.90;;;;;;5061734;28;20689;-80
2022/06/01 12:19:18;;;;;;;0.20;0.20;;;23.40;99.90;;;;;;5089946;28;20200;-81
2022/06/01 12:21:44;;;;;;;0.20;0.20;;;22.40;99.90;;;;;;5075613;28;20227;-80
2022/06/01 12:30:10;;;;;;;0.75;0.30;;;21.00;99.90;;;;;;5079362;28;20258;-80
2022/06/01 12:32:58;;;;;;;0.47;0.30;;;21.50;99.90;;;;;;5078404;28;20180;-80
2022/06/01 12:35:37;;;;;;;0.25;0.25;;;22.00;99.90;;;;;;5078934;28;20211;-81
2022/06/01 12:38:08;;;;;;;0.20;0.20;;;22.40;99.90;;;;;;5060618;28;20197;-80
2022/06/01 12:40:34;;;;;;;9.43;1.00;;;22.50;99.90;;;;;;5060558;28;20193;-80
2022/06/01 12:43:02;;;;;;;1.52;0.52;;;22.70;99.90;;;;;;5060945;28;20204;-80
2022/06/01 12:45:40;;;;;;;0.20;0.20;;;22.10;98.60;;;;;;5060806;28;20197;-80
2022/06/01 12:48:15;;;;;;;0.30;0.30;;;21.70;99.90;;;;;;5060621;28;20192;-79
2022/06/01 12:50:58;;;;;;;0.20;0.20;;;21.20;99.10;;;;;;5060468;28;20223;-79
2022/06/01 12:53:38;;;;;;;0.30;0.30;;;20.80;99.90;;;;;;5059949;28;20196;-80
2022/06/01 12:56:27;;;;;;;0.52;0.52;;;20.90;99.90;;;;;;5078956;28;20203;-82
2022/06/01 12:58:54;;;;;;;0.57;0.57;;;20.40;99.90;;;;;;5060548;28;20197;-81
2022/06/01 13:01:27;;;;;;;0.20;0.20;;;20.50;99.90;;;;;;5060474;28;20291;-82
2022/06/01 13:03:57;;;;;;;0.15;0.15;;;20.80;99.90;;;;;;5060775;28;20209;-80
2022/06/01 13:06:26;;;;;;;0.30;0.30;;;21.40;99.90;;;;;;5059460;28;20196;-81
2022/06/01 13:08:56;;;;;;;0.20;0.20;;;21.70;99.90;;;;;;5059470;28;20196;-81
2022/06/01 13:11:31;;;;;;;0.20;0.20;;;22.40;99.90;;;;;;5059628;28;20220;-82
2022/06/01 13:13:59;;;;;;;0.77;0.50;;;23.10;99.90;;;;;;5061306;28;20686;-81
2022/06/01 13:16:35;;;;;;;0.25;0.25;;;23.10;97.50;;;;;;5079877;28;20682;-80
2022/06/01 13:19:24;;;;;;;0.40;0.40;;;22.20;97.20;;;;;;5086746;28;20230;-80
2022/06/01 13:22:08;;;;;;;0.20;0.20;;;21.70;97.10;;;;;;5056280;28;20229;-79
2022/06/01 13:24:44;;;;;;;0.20;0.20;;;21.00;98.70;;;;;;5056394;28;20206;-79
2022/06/01 13:27:10;;;;;;;0.30;0.30;;;21.00;99.80;;;;;;5056462;28;20572;-79
2022/06/01 13:29:48;;;;;;;0.20;0.20;;;20.90;98.50;;;;;;5057402;28;20249;-79
2022/06/01 13:32:17;;;;;;;0.20;0.20;;;21.20;98.00;;;;;;5056331;28;20205;-78
2022/06/01 13:34:44;;;;;;;0.20;0.20;;;21.30;98.00;;;;;;5057318;28;20201;-79
2022/06/01 13:37:21;;;;;;;0.75;0.40;;;21.00;97.80;;;;;;5056453;28;20224;-79
2022/06/01 13:40:00;;;;;;;0.25;0.25;;;20.80;97.70;;;;;;5056308;28;20284;-79
2022/06/01 13:42:37;;;;;;;0.20;0.20;;;21.50;98.40;;;;;;5056008;28;20563;-80
2022/06/01 13:45:13;;;;;;;0.22;0.22;;;21.70;97.20;;;;;;5056613;28;20205;-81
2022/06/01 13:47:56;;;;;;;0.20;0.20;;;21.80;96.70;;;;;;5056063;28;20193;-79